Time;durP1;ratioP1;P1;durP2;ratioP2;P2;SDS_P1;SDS_P2;PMS_P1;PMS_P2;Temp;Humidity;BMP_temperature;BMP_pressure;BME280_temperature;BME280_humidity;BME280_pressure;Samples;Min_cycle;Max_cycle;Signal;HPM_P1;HPM_P2
2021/08/03 00:00:09;;;;;;;3.35;2.92;;;24.30;99.90;;;;;;5090523;28;20028;-66
2021/08/03 00:02:37;;;;;;;11.13;3.83;;;24.30;99.90;;;;;;5076274;28;20229;-66
2021/08/03 00:05:03;;;;;;;6.22;3.83;;;24.10;99.90;;;;;;5069772;28;20024;-67
2021/08/03 00:07:31;;;;;;;8.55;3.72;;;24.10;99.90;;;;;;5089134;28;20047;-66
2021/08/03 00:09:57;;;;;;;6.90;3.58;;;24.10;99.90;;;;;;5090350;28;20044;-65
2021/08/03 00:12:23;;;;;;;6.72;4.03;;;24.10;99.90;;;;;;5073812;28;20055;-66
2021/08/03 00:14:52;;;;;;;5.47;3.47;;;24.10;99.90;;;;;;5090573;28;20020;-66
2021/08/03 00:17:24;;;;;;;5.70;3.63;;;24.10;99.90;;;;;;5074368;28;20047;-66
2021/08/03 00:19:51;;;;;;;5.53;3.58;;;24.10;99.90;;;;;;5089869;28;20077;-66
2021/08/03 00:22:17;;;;;;;4.97;2.97;;;24.00;99.90;;;;;;5091002;28;20409;-66
2021/08/03 00:24:43;;;;;;;8.38;4.35;;;23.90;99.90;;;;;;5088714;28;20398;-66
2021/08/03 00:27:09;;;;;;;6.15;4.13;;;23.80;99.90;;;;;;5091616;28;20023;-66
2021/08/03 00:29:36;;;;;;;4.57;3.05;;;23.70;99.90;;;;;;5072268;28;20023;-66
2021/08/03 00:32:03;;;;;;;7.63;4.10;;;23.60;99.90;;;;;;5069500;28;20024;-67
2021/08/03 00:34:30;;;;;;;3.80;2.83;;;23.60;99.90;;;;;;5090878;28;20075;-67
2021/08/03 00:36:56;;;;;;;4.75;2.97;;;23.60;99.90;;;;;;5070878;28;20030;-67
2021/08/03 00:39:24;;;;;;;5.47;3.30;;;23.70;99.90;;;;;;5089137;28;20028;-67
2021/08/03 00:41:59;;;;;;;4.57;3.80;;;23.60;99.90;;;;;;5091141;28;20067;-67
2021/08/03 00:44:45;;;;;;;5.20;3.80;;;23.60;99.90;;;;;;5086562;28;20398;-67
2021/08/03 00:47:12;;;;;;;5.35;3.70;;;23.60;99.90;;;;;;5084202;28;20028;-67
2021/08/03 00:49:38;;;;;;;5.28;3.30;;;23.60;99.90;;;;;;5072267;28;20020;-67
2021/08/03 00:52:04;;;;;;;8.35;3.53;;;23.60;99.90;;;;;;5091292;28;20386;-66
2021/08/03 00:54:30;;;;;;;6.78;3.25;;;23.60;99.90;;;;;;5085050;28;20020;-67
2021/08/03 00:56:57;;;;;;;5.45;3.60;;;23.50;99.90;;;;;;5072990;28;20035;-66
2021/08/03 00:59:23;;;;;;;4.85;3.60;;;23.60;99.90;;;;;;5066841;28;20071;-66
2021/08/03 01:01:49;;;;;;;6.28;3.78;;;23.60;99.90;;;;;;5067198;28;20105;-67
2021/08/03 01:04:17;;;;;;;6.07;3.88;;;23.60;99.90;;;;;;5089039;28;20050;-66
2021/08/03 01:07:11;;;;;;;6.95;3.58;;;23.60;99.90;;;;;;5090584;28;20050;-66
2021/08/03 01:09:45;;;;;;;3.58;3.28;;;23.60;99.90;;;;;;5076285;28;20115;-66
2021/08/03 01:12:33;;;;;;;6.22;3.75;;;23.60;99.90;;;;;;5087067;28;20504;-66
2021/08/03 01:15:40;;;;;;;4.75;3.33;;;23.50;99.90;;;;;;5090363;28;20039;-66
2021/08/03 01:18:30;;;;;;;6.35;3.42;;;23.50;99.90;;;;;;5056243;28;21756;-66
2021/08/03 01:21:33;;;;;;;5.22;3.65;;;23.50;99.90;;;;;;5065921;28;20032;-66
2021/08/03 01:24:30;;;;;;;3.83;3.33;;;23.40;99.90;;;;;;5090978;28;20034;-66
2021/08/03 01:26:59;;;;;;;4.53;3.05;;;23.30;99.90;;;;;;5080990;28;20039;-66
2021/08/03 01:29:26;;;;;;;7.90;3.92;;;23.40;99.90;;;;;;5087631;28;20020;-67
2021/08/03 01:31:57;;;;;;;8.52;4.25;;;23.40;99.90;;;;;;5075685;28;20394;-67
2021/08/03 01:34:25;;;;;;;4.32;3.25;;;23.30;99.90;;;;;;5075032;28;20099;-67
2021/08/03 01:36:54;;;;;;;4.82;2.90;;;23.30;99.90;;;;;;5089764;28;20032;-67
2021/08/03 01:39:24;;;;;;;9.18;4.30;;;23.20;99.90;;;;;;5086738;28;20073;-67
2021/08/03 01:41:53;;;;;;;4.28;3.50;;;23.00;99.90;;;;;;5072506;28;20036;-67
2021/08/03 01:44:21;;;;;;;6.55;3.90;;;23.00;99.90;;;;;;5067323;28;20020;-66
2021/08/03 01:46:48;;;;;;;3.97;3.58;;;23.00;99.90;;;;;;5091277;28;20467;-66
2021/08/03 01:49:18;;;;;;;6.18;3.53;;;23.00;99.90;;;;;;5089654;28;20020;-67
2021/08/03 01:51:46;;;;;;;4.88;3.05;;;22.90;99.90;;;;;;5068132;28;20016;-67
2021/08/03 01:54:12;;;;;;;3.55;3.25;;;23.00;99.90;;;;;;5070038;28;20073;-67
2021/08/03 01:56:39;;;;;;;4.43;3.08;;;22.90;99.90;;;;;;5067924;28;20036;-69
2021/08/03 01:59:07;;;;;;;4.00;3.28;;;22.90;99.90;;;;;;5088496;28;20024;-67
2021/08/03 02:01:35;;;;;;;5.32;3.13;;;22.90;99.90;;;;;;5084625;28;20020;-67
2021/08/03 02:04:02;;;;;;;5.88;3.72;;;23.00;99.90;;;;;;5085692;28;20211;-67
2021/08/03 02:06:29;;;;;;;4.85;3.53;;;23.00;99.90;;;;;;5072295;28;20034;-67
2021/08/03 02:08:59;;;;;;;5.70;3.40;;;22.90;99.90;;;;;;5089517;28;20129;-66
2021/08/03 02:11:30;;;;;;;4.28;3.85;;;22.90;99.90;;;;;;5089203;28;20101;-69
2021/08/03 02:13:57;;;;;;;14.55;3.67;;;22.90;99.90;;;;;;5091045;28;20031;-67
2021/08/03 02:16:24;;;;;;;8.40;3.72;;;22.90;99.90;;;;;;5085213;28;20032;-67
2021/08/03 02:18:50;;;;;;;7.60;3.60;;;22.90;99.90;;;;;;5083892;28;20035;-68
2021/08/03 02:21:21;;;;;;;5.55;3.65;;;23.00;99.90;;;;;;5089633;28;20569;-68
2021/08/03 02:23:47;;;;;;;6.60;3.70;;;23.00;99.90;;;;;;5089210;28;20365;-68
2021/08/03 02:26:14;;;;;;;6.90;3.33;;;22.90;99.90;;;;;;5089563;28;20024;-68
2021/08/03 02:28:40;;;;;;;8.10;3.45;;;22.90;99.90;;;;;;5071745;28;20487;-67
2021/08/03 02:31:28;;;;;;;5.18;3.30;;;22.90;99.90;;;;;;5088810;28;20055;-67
2021/08/03 02:34:23;;;;;;;3.70;2.70;;;22.90;99.90;;;;;;5083620;28;20030;-67
2021/08/03 02:36:53;;;;;;;5.43;3.55;;;22.80;99.90;;;;;;5078358;28;20036;-67
2021/08/03 02:39:20;;;;;;;8.57;3.58;;;22.80;99.90;;;;;;5066118;28;20024;-67
2021/08/03 02:41:49;;;;;;;4.32;3.90;;;22.80;99.90;;;;;;5065709;28;20123;-67
2021/08/03 02:44:18;;;;;;;6.97;3.80;;;22.80;99.90;;;;;;5072061;28;20322;-67
2021/08/03 02:46:47;;;;;;;7.43;3.33;;;22.80;99.90;;;;;;5066010;28;20486;-67
2021/08/03 02:49:16;;;;;;;6.25;4.40;;;22.70;99.90;;;;;;5071285;28;20027;-67
2021/08/03 02:51:42;;;;;;;4.38;4.00;;;22.70;99.90;;;;;;5087537;28;20103;-66
2021/08/03 02:54:17;;;;;;;7.95;4.10;;;22.60;99.90;;;;;;5061942;28;20020;-65
2021/08/03 02:56:46;;;;;;;8.15;3.25;;;22.60;99.90;;;;;;5080520;28;20115;-64
2021/08/03 02:59:15;;;;;;;3.42;3.13;;;22.70;99.90;;;;;;5068027;28;20027;-67
2021/08/03 03:01:43;;;;;;;5.38;3.55;;;22.60;99.90;;;;;;5087619;28;20044;-65
2021/08/03 03:04:25;;;;;;;4.88;3.85;;;22.60;99.90;;;;;;5088772;28;20047;-66
2021/08/03 03:06:56;;;;;;;4.93;3.83;;;22.60;99.90;;;;;;5085653;28;20025;-67
2021/08/03 03:09:26;;;;;;;6.40;3.58;;;22.70;99.90;;;;;;5067843;28;20147;-66
2021/08/03 03:11:53;;;;;;;5.50;3.22;;;22.60;99.90;;;;;;5089228;28;20024;-66
2021/08/03 03:14:22;;;;;;;7.72;4.32;;;22.60;99.90;;;;;;5089033;28;20027;-66
2021/08/03 03:16:50;;;;;;;3.72;2.88;;;22.60;99.90;;;;;;5085233;28;20077;-66
2021/08/03 03:19:19;;;;;;;4.93;3.95;;;22.60;99.90;;;;;;5085646;28;20106;-69
2021/08/03 03:21:50;;;;;;;10.85;3.58;;;22.70;99.90;;;;;;5082546;28;20037;-67
2021/08/03 03:24:16;;;;;;;7.47;4.15;;;22.70;99.90;;;;;;5090100;28;20076;-66
2021/08/03 03:26:44;;;;;;;3.75;3.08;;;22.50;99.90;;;;;;5069680;28;20024;-67
2021/08/03 03:29:11;;;;;;;8.75;3.88;;;22.50;99.90;;;;;;5070298;28;20055;-67
2021/08/03 03:31:40;;;;;;;5.28;3.83;;;22.50;99.90;;;;;;5071369;28;20020;-67
2021/08/03 03:34:07;;;;;;;4.10;3.63;;;22.50;99.90;;;;;;5092777;28;20024;-68
2021/08/03 03:36:38;;;;;;;10.07;3.92;;;22.50;99.90;;;;;;5094179;28;20055;-69
2021/08/03 03:39:05;;;;;;;7.15;4.22;;;22.50;99.90;;;;;;5088233;28;20110;-69
2021/08/03 03:41:32;;;;;;;4.65;3.40;;;22.40;99.90;;;;;;5087527;28;20469;-67
2021/08/03 03:43:58;;;;;;;6.13;3.95;;;22.40;99.90;;;;;;5076795;28;20032;-68
2021/08/03 03:46:31;;;;;;;4.82;4.30;;;22.40;99.90;;;;;;5093279;28;20634;-68
2021/08/03 03:49:08;;;;;;;5.32;3.08;;;22.40;99.90;;;;;;5073895;28;20032;-66
2021/08/03 03:51:39;;;;;;;4.22;3.85;;;22.40;99.90;;;;;;5074580;28;20024;-71
2021/08/03 03:54:08;;;;;;;5.82;3.63;;;22.50;99.90;;;;;;5072337;28;20069;-66
2021/08/03 03:56:48;;;;;;;5.82;3.45;;;22.50;99.90;;;;;;5094714;28;20017;-69
2021/08/03 03:59:19;;;;;;;3.97;3.42;;;22.50;99.90;;;;;;5086298;28;20106;-67
2021/08/03 04:01:48;;;;;;;10.68;5.10;;;22.40;99.90;;;;;;5092640;28;20066;-67
2021/08/03 04:04:17;;;;;;;5.68;3.85;;;22.40;99.90;;;;;;5069043;28;20020;-68
2021/08/03 04:06:43;;;;;;;8.00;4.78;;;22.40;99.90;;;;;;5091686;28;20020;-68
2021/08/03 04:09:18;;;;;;;6.55;4.25;;;22.40;99.90;;;;;;5090816;28;20037;-68
2021/08/03 04:11:46;;;;;;;8.20;4.53;;;22.40;99.90;;;;;;5089574;28;20024;-67
2021/08/03 04:14:19;;;;;;;5.57;4.00;;;22.40;99.90;;;;;;5089598;28;20028;-68
2021/08/03 04:16:45;;;;;;;6.03;4.25;;;22.40;99.90;;;;;;5088822;28;20513;-67
2021/08/03 04:19:11;;;;;;;6.70;3.65;;;22.40;99.90;;;;;;5074283;28;20122;-67
2021/08/03 04:21:37;;;;;;;4.15;3.72;;;22.40;99.90;;;;;;5092534;28;20066;-68
2021/08/03 04:24:02;;;;;;;4.50;3.72;;;22.40;99.90;;;;;;5078833;28;20031;-67
2021/08/03 04:26:28;;;;;;;9.75;4.35;;;22.50;99.90;;;;;;5073754;28;20055;-67
2021/08/03 04:28:54;;;;;;;7.18;3.72;;;22.50;99.90;;;;;;5068333;28;20020;-68
2021/08/03 04:31:20;;;;;;;5.03;3.97;;;22.40;99.90;;;;;;5086826;28;20158;-68
2021/08/03 04:33:45;;;;;;;7.15;4.40;;;22.50;99.90;;;;;;5091057;28;20114;-67
2021/08/03 04:36:11;;;;;;;5.65;3.72;;;22.50;99.90;;;;;;5074425;28;20474;-66
2021/08/03 04:38:37;;;;;;;4.15;3.70;;;22.60;99.90;;;;;;5088562;28;20035;-67
2021/08/03 04:41:03;;;;;;;8.13;4.53;;;22.60;99.90;;;;;;5074355;28;20027;-67
2021/08/03 04:43:29;;;;;;;3.83;3.20;;;22.60;99.90;;;;;;5089984;28;20024;-68
2021/08/03 04:45:55;;;;;;;8.20;3.88;;;22.60;99.90;;;;;;5085906;28;20036;-68
2021/08/03 04:48:21;;;;;;;8.13;3.78;;;22.70;99.90;;;;;;5087355;28;20032;-68
2021/08/03 04:50:46;;;;;;;5.53;4.53;;;22.70;99.90;;;;;;5069597;28;20478;-68
2021/08/03 04:53:12;;;;;;;5.88;3.38;;;22.70;99.90;;;;;;5069435;28;20493;-68
2021/08/03 04:55:38;;;;;;;4.13;3.72;;;22.80;99.90;;;;;;5095635;28;20067;-67
2021/08/03 04:58:04;;;;;;;5.07;4.28;;;22.80;99.90;;;;;;5064751;28;20390;-67
2021/08/03 05:00:29;;;;;;;6.85;4.55;;;22.80;99.90;;;;;;5083124;28;20036;-68
2021/08/03 05:02:55;;;;;;;8.52;4.25;;;22.80;99.90;;;;;;5064994;28;20131;-67
2021/08/03 05:05:21;;;;;;;5.88;3.83;;;22.80;99.90;;;;;;5069503;28;20032;-67
2021/08/03 05:08:00;;;;;;;6.10;5.05;;;22.90;99.90;;;;;;5084457;28;20024;-67
2021/08/03 05:10:28;;;;;;;9.35;4.13;;;22.90;99.90;;;;;;5074735;28;20036;-67
2021/08/03 05:12:53;;;;;;;11.23;7.70;;;23.00;99.90;;;;;;5091819;28;20114;-67
2021/08/03 05:15:19;;;;;;;5.53;5.00;;;23.10;99.90;;;;;;5091455;28;20110;-66
2021/08/03 05:17:45;;;;;;;5.25;3.42;;;23.20;99.90;;;;;;5073498;28;20067;-67
2021/08/03 05:20:13;;;;;;;13.43;4.63;;;23.30;99.90;;;;;;5092036;28;20061;-68
2021/08/03 05:22:39;;;;;;;5.70;3.90;;;23.40;99.90;;;;;;5073758;28;20028;-68
2021/08/03 05:25:05;;;;;;;9.68;3.35;;;23.50;99.90;;;;;;5091575;28;20051;-67
2021/08/03 05:27:31;;;;;;;7.07;4.63;;;23.60;99.90;;;;;;5073713;28;20027;-68
2021/08/03 05:29:57;;;;;;;12.05;8.95;;;23.60;99.90;;;;;;5095611;28;20024;-67
2021/08/03 05:32:23;;;;;;;7.82;4.90;;;23.60;99.90;;;;;;5094540;28;20051;-67
2021/08/03 05:34:49;;;;;;;10.90;4.75;;;23.60;99.90;;;;;;5076165;28;20052;-67
2021/08/03 05:37:15;;;;;;;5.63;3.65;;;23.60;99.90;;;;;;5076118;28;20028;-67
2021/08/03 05:39:41;;;;;;;6.68;3.67;;;23.40;99.90;;;;;;5079553;28;20024;-67
2021/08/03 05:42:07;;;;;;;7.72;4.53;;;23.50;99.90;;;;;;5074453;28;20036;-66
2021/08/03 05:44:33;;;;;;;8.10;5.15;;;23.50;99.90;;;;;;5093379;28;20043;-65
2021/08/03 05:46:59;;;;;;;7.50;3.65;;;23.40;99.90;;;;;;5086532;28;20111;-67
2021/08/03 05:49:26;;;;;;;6.75;4.28;;;23.50;99.90;;;;;;5088535;28;20097;-68
2021/08/03 05:51:52;;;;;;;4.45;4.05;;;23.60;99.90;;;;;;5089473;28;20031;-68
2021/08/03 05:54:18;;;;;;;8.73;3.97;;;23.60;99.90;;;;;;5072527;28;20017;-67
2021/08/03 05:56:43;;;;;;;6.65;5.00;;;23.70;99.90;;;;;;5091041;28;20036;-67
2021/08/03 05:59:09;;;;;;;11.20;4.88;;;23.70;99.90;;;;;;5090925;28;20077;-67
2021/08/03 06:01:35;;;;;;;6.45;3.90;;;23.80;99.90;;;;;;5091138;28;20035;-67
2021/08/03 06:04:01;;;;;;;10.57;3.78;;;23.90;99.90;;;;;;5090611;28;20062;-67
2021/08/03 06:06:28;;;;;;;9.50;4.10;;;23.90;99.90;;;;;;5069693;28;20050;-70
2021/08/03 06:08:56;;;;;;;10.93;4.57;;;24.00;99.90;;;;;;5086652;28;20312;-69
2021/08/03 06:11:24;;;;;;;7.55;3.92;;;24.10;99.90;;;;;;5085035;28;20382;-67
2021/08/03 06:13:57;;;;;;;8.88;4.35;;;24.10;99.90;;;;;;5084841;28;20623;-69
2021/08/03 06:16:26;;;;;;;10.23;4.43;;;24.20;99.90;;;;;;5085518;28;20024;-67
2021/08/03 06:18:55;;;;;;;9.20;5.07;;;24.30;99.90;;;;;;5069357;28;20039;-68
2021/08/03 06:21:23;;;;;;;5.93;3.85;;;24.40;99.90;;;;;;5088400;28;20024;-67
2021/08/03 06:23:50;;;;;;;13.48;4.22;;;24.40;99.90;;;;;;5055477;28;20023;-66
2021/08/03 06:26:19;;;;;;;6.65;3.80;;;24.50;99.90;;;;;;5068276;28;20024;-68
2021/08/03 06:28:48;;;;;;;10.52;4.80;;;24.60;99.90;;;;;;5089727;28;20043;-67
2021/08/03 06:31:15;;;;;;;10.23;4.88;;;24.60;99.90;;;;;;5087622;28;20032;-67
2021/08/03 06:33:41;;;;;;;14.98;9.60;;;24.60;99.90;;;;;;5088742;28;20020;-67
2021/08/03 06:36:07;;;;;;;6.15;3.70;;;24.70;99.90;;;;;;5086803;28;20036;-68
2021/08/03 06:38:32;;;;;;;4.95;4.18;;;24.70;99.90;;;;;;5067772;28;20031;-68
2021/08/03 06:41:01;;;;;;;7.65;3.78;;;24.70;99.90;;;;;;5089548;28;20098;-67
2021/08/03 06:43:29;;;;;;;4.38;3.53;;;24.80;99.90;;;;;;5069688;28;20028;-68
2021/08/03 06:46:09;;;;;;;8.40;3.22;;;25.00;99.90;;;;;;5069249;28;20064;-65
2021/08/03 06:48:40;;;;;;;9.07;3.63;;;25.10;99.90;;;;;;5066406;28;20020;-65
2021/08/03 06:51:14;;;;;;;7.63;3.78;;;25.30;99.90;;;;;;5071629;28;20028;-64
2021/08/03 06:53:45;;;;;;;11.35;4.20;;;25.30;99.90;;;;;;5063057;28;20490;-64
2021/08/03 06:56:22;;;;;;;8.98;4.10;;;25.30;99.90;;;;;;5052601;28;20024;-64
2021/08/03 06:58:57;;;;;;;12.23;4.03;;;25.30;99.90;;;;;;5060134;28;20025;-64
2021/08/03 07:01:39;;;;;;;7.13;4.03;;;25.40;99.90;;;;;;5088453;28;20373;-63
2021/08/03 07:04:05;;;;;;;;;;;25.50;99.90;;;;;;5090173;28;20027;-64
2021/08/03 07:06:38;;;;;;;11.68;3.90;;;25.60;99.90;;;;;;5085494;28;19957;-65
2021/08/03 07:09:05;;;;;;;8.20;4.00;;;25.70;99.90;;;;;;5071946;28;20024;-64
2021/08/03 07:11:33;;;;;;;8.13;5.30;;;25.70;99.90;;;;;;5075741;28;20020;-66
2021/08/03 07:13:59;;;;;;;7.75;4.03;;;25.70;99.90;;;;;;5092010;28;20016;-64
2021/08/03 07:16:28;;;;;;;12.80;5.57;;;25.80;99.90;;;;;;5067512;28;20020;-67
2021/08/03 07:18:56;;;;;;;10.85;4.68;;;25.90;99.90;;;;;;5058671;28;20031;-64
2021/08/03 07:21:25;;;;;;;7.20;3.97;;;26.10;99.90;;;;;;5075147;28;20504;-64
2021/08/03 07:23:55;;;;;;;5.90;4.03;;;26.20;99.90;;;;;;5087611;28;20032;-64
2021/08/03 07:26:21;;;;;;;7.85;3.58;;;26.30;99.90;;;;;;5093789;28;20016;-63
2021/08/03 07:28:47;;;;;;;6.85;2.97;;;26.30;99.90;;;;;;5076222;28;20147;-63
2021/08/03 07:31:13;;;;;;;6.22;4.20;;;26.30;99.90;;;;;;5096580;28;20035;-64
2021/08/03 07:33:39;;;;;;;8.63;3.95;;;26.30;99.90;;;;;;5074054;28;20023;-64
2021/08/03 07:36:05;;;;;;;6.57;4.57;;;26.30;99.90;;;;;;5073494;28;20108;-64
2021/08/03 07:38:31;;;;;;;5.95;3.85;;;26.40;99.90;;;;;;5090830;28;20052;-64
2021/08/03 07:40:57;;;;;;;6.03;3.40;;;26.50;99.90;;;;;;5088165;28;20465;-64
2021/08/03 07:43:22;;;;;;;10.23;4.03;;;26.60;99.90;;;;;;5073931;28;20028;-64
2021/08/03 07:45:48;;;;;;;8.45;2.90;;;26.60;99.90;;;;;;5092930;28;20028;-65
2021/08/03 07:48:14;;;;;;;6.70;3.88;;;26.70;99.90;;;;;;5091919;28;20024;-64
2021/08/03 07:50:40;;;;;;;7.68;4.03;;;26.80;99.90;;;;;;5070708;28;20112;-64
2021/08/03 07:53:06;;;;;;;15.07;4.13;;;26.90;99.90;;;;;;5072166;28;20055;-65
2021/08/03 07:55:32;;;;;;;15.18;3.88;;;26.90;99.90;;;;;;5077358;28;20080;-65
2021/08/03 07:57:57;;;;;;;14.30;3.88;;;27.00;99.90;;;;;;5106489;28;20067;-65
2021/08/03 08:00:23;;;;;;;10.65;7.88;;;27.00;99.90;;;;;;5086168;28;20099;-66
2021/08/03 08:02:49;;;;;;;5.50;2.67;;;27.10;99.90;;;;;;5073291;28;20090;-65
2021/08/03 08:05:15;;;;;;;9.45;3.78;;;27.00;99.90;;;;;;5084151;28;20486;-65
2021/08/03 08:07:40;;;;;;;10.88;3.17;;;27.10;99.90;;;;;;5089263;28;20024;-64
2021/08/03 08:10:07;;;;;;;8.73;3.30;;;27.20;99.90;;;;;;5088325;28;20042;-64
2021/08/03 08:12:32;;;;;;;10.40;3.80;;;27.20;99.90;;;;;;5083081;28;20028;-64
2021/08/03 08:14:58;;;;;;;9.18;4.50;;;27.20;99.90;;;;;;5094551;28;20748;-64
2021/08/03 08:17:24;;;;;;;7.88;4.30;;;27.20;99.90;;;;;;5088720;28;20043;-65
2021/08/03 08:19:50;;;;;;;6.53;4.05;;;27.20;99.90;;;;;;5088474;28;20044;-65
2021/08/03 08:22:15;;;;;;;12.20;4.28;;;27.20;99.90;;;;;;5085170;28;20115;-64
2021/08/03 08:24:41;;;;;;;10.73;3.63;;;27.10;99.90;;;;;;5091417;28;20072;-64
2021/08/03 08:27:07;;;;;;;14.45;3.97;;;27.00;99.90;;;;;;5072755;28;20034;-65
2021/08/03 08:29:33;;;;;;;11.18;4.47;;;26.90;99.90;;;;;;5092058;28;20027;-64
2021/08/03 08:31:59;;;;;;;13.30;4.57;;;26.80;99.90;;;;;;5091601;28;20223;-65
2021/08/03 08:34:24;;;;;;;4.85;2.80;;;26.80;99.90;;;;;;5069690;28;20710;-64
2021/08/03 08:36:51;;;;;;;10.20;3.72;;;26.60;99.90;;;;;;5089885;28;20032;-64
2021/08/03 08:39:16;;;;;;;8.48;3.70;;;26.40;99.90;;;;;;5088809;28;20118;-66
2021/08/03 08:41:44;;;;;;;7.10;3.75;;;26.20;99.90;;;;;;5072731;28;20112;-63
2021/08/03 08:44:10;;;;;;;12.88;4.10;;;26.00;99.90;;;;;;5089992;28;20035;-63
2021/08/03 08:46:37;;;;;;;10.48;3.80;;;26.00;99.90;;;;;;5084078;28;20203;-64
2021/08/03 08:49:05;;;;;;;12.45;4.70;;;26.00;99.90;;;;;;5073482;28;20289;-65
2021/08/03 08:51:32;;;;;;;7.88;3.25;;;26.00;99.90;;;;;;5092031;28;20021;-64
2021/08/03 08:54:01;;;;;;;12.32;4.38;;;25.80;99.90;;;;;;5092106;28;20454;-64
2021/08/03 08:56:28;;;;;;;12.20;3.83;;;25.80;99.90;;;;;;5088745;28;20035;-63
2021/08/03 08:58:54;;;;;;;14.88;3.22;;;25.90;99.90;;;;;;5085283;28;20029;-64
2021/08/03 09:01:19;;;;;;;11.57;3.70;;;26.00;99.90;;;;;;5089003;28;20093;-64
2021/08/03 09:03:45;;;;;;;12.50;3.35;;;26.10;99.90;;;;;;5091857;28;20036;-64
2021/08/03 09:06:11;;;;;;;9.48;3.17;;;26.30;99.90;;;;;;5085704;28;20032;-64
2021/08/03 09:08:43;;;;;;;9.00;3.33;;;26.50;99.90;;;;;;5070131;28;20028;-65
2021/08/03 09:11:15;;;;;;;8.70;3.78;;;26.50;99.90;;;;;;5085096;28;20102;-64
2021/08/03 09:13:49;;;;;;;13.80;3.85;;;26.50;99.90;;;;;;5069984;28;20061;-64
2021/08/03 09:16:15;;;;;;;7.40;3.20;;;26.50;99.90;;;;;;5085372;28;20039;-63
2021/08/03 09:18:45;;;;;;;11.60;3.75;;;26.40;99.90;;;;;;5086038;28;20020;-64
2021/08/03 09:21:25;;;;;;;9.60;4.60;;;26.40;99.90;;;;;;5091719;28;20020;-64
2021/08/03 09:23:57;;;;;;;8.57;3.50;;;26.40;99.90;;;;;;5071668;28;20486;-64
2021/08/03 09:26:49;;;;;;;8.30;4.63;;;26.40;99.90;;;;;;5090762;28;20072;-64
2021/08/03 09:29:16;;;;;;;11.05;4.03;;;26.50;99.90;;;;;;5087335;28;20424;-65
2021/08/03 09:31:56;;;;;;;7.88;3.33;;;26.60;99.90;;;;;;5089345;28;20040;-65
2021/08/03 09:34:22;;;;;;;10.98;3.38;;;26.50;99.90;;;;;;5090180;28;20024;-65
2021/08/03 09:36:56;;;;;;;8.07;3.30;;;26.60;99.90;;;;;;5073481;28;20450;-65
2021/08/03 09:39:47;;;;;;;9.00;3.58;;;26.60;99.90;;;;;;5070674;28;20059;-64
2021/08/03 09:42:20;;;;;;;8.13;3.25;;;26.50;99.90;;;;;;5089553;28;20028;-63
2021/08/03 09:45:08;;;;;;;9.05;4.05;;;26.30;99.90;;;;;;5091348;28;20088;-63
2021/08/03 09:47:37;;;;;;;5.72;3.55;;;26.20;99.90;;;;;;5084757;28;20516;-65
2021/08/03 09:50:09;;;;;;;14.35;5.10;;;26.10;99.90;;;;;;5066635;28;20119;-65
2021/08/03 09:52:40;;;;;;;12.57;4.50;;;26.00;99.90;;;;;;5074875;28;20019;-64
2021/08/03 09:55:20;;;;;;;10.05;3.75;;;26.00;99.90;;;;;;5086837;28;20439;-64
2021/08/03 09:57:47;;;;;;;7.68;3.42;;;26.00;99.90;;;;;;5086149;28;20657;-66
2021/08/03 10:00:25;;;;;;;9.85;4.05;;;25.90;99.90;;;;;;5089704;28;20074;-64
2021/08/03 10:02:53;;;;;;;9.07;2.92;;;26.20;99.90;;;;;;5087182;28;20023;-65
2021/08/03 10:05:20;;;;;;;8.82;3.20;;;26.50;99.90;;;;;;5088784;28;20023;-65
2021/08/03 10:07:46;;;;;;;8.93;2.83;;;26.70;99.90;;;;;;5094347;28;20020;-65
2021/08/03 10:10:13;;;;;;;12.82;3.83;;;26.80;99.90;;;;;;5064133;28;20025;-63
2021/08/03 10:12:40;;;;;;;11.98;5.25;;;27.00;99.90;;;;;;5087070;28;20031;-67
2021/08/03 10:15:10;;;;;;;10.82;3.63;;;26.90;99.90;;;;;;5066946;28;20031;-64
2021/08/03 10:17:37;;;;;;;4.97;3.20;;;26.90;99.90;;;;;;5085717;28;20024;-68
2021/08/03 10:20:04;;;;;;;4.95;3.17;;;26.70;99.90;;;;;;5064267;28;20036;-64
2021/08/03 10:22:52;;;;;;;9.75;3.08;;;26.60;99.90;;;;;;5061072;28;20041;-64
2021/08/03 10:25:20;;;;;;;15.00;4.07;;;26.50;99.90;;;;;;5088285;28;20024;-64
2021/08/03 10:27:48;;;;;;;8.50;3.42;;;26.50;99.90;;;;;;5067038;28;20035;-64
2021/08/03 10:30:29;;;;;;;16.23;3.95;;;26.50;99.90;;;;;;5087624;28;20197;-64
2021/08/03 10:32:59;;;;;;;18.42;4.60;;;26.40;99.90;;;;;;5084075;28;20064;-66
2021/08/03 10:35:47;;;;;;;8.25;3.50;;;26.50;99.90;;;;;;5090491;28;20425;-64
2021/08/03 10:38:20;;;;;;;10.15;4.18;;;26.50;99.90;;;;;;5089264;28;20457;-65
2021/08/03 10:40:49;;;;;;;6.68;3.00;;;26.60;99.90;;;;;;5089777;28;20039;-64
2021/08/03 10:43:23;;;;;;;8.73;3.53;;;26.70;99.90;;;;;;5081459;28;20478;-66
2021/08/03 10:46:09;;;;;;;9.88;3.65;;;26.60;99.90;;;;;;5090704;28;20474;-64
2021/08/03 10:48:38;;;;;;;8.35;3.88;;;26.60;99.90;;;;;;5088591;28;20435;-64
2021/08/03 10:51:13;;;;;;;12.52;3.05;;;26.70;99.90;;;;;;5074761;28;20028;-65
2021/08/03 10:53:51;;;;;;;9.82;3.70;;;26.70;99.90;;;;;;5092204;28;20106;-65
2021/08/03 10:56:17;;;;;;;14.27;4.30;;;26.80;99.90;;;;;;5093665;28;20592;-65
2021/08/03 10:58:44;;;;;;;10.27;3.58;;;26.90;99.90;;;;;;5094656;28;20024;-66
2021/08/03 11:01:10;;;;;;;7.68;3.40;;;27.10;99.90;;;;;;5070182;28;20035;-66
2021/08/03 11:03:36;;;;;;;7.88;3.75;;;27.10;99.90;;;;;;5061757;28;20028;-65
2021/08/03 11:06:09;;;;;;;10.60;3.70;;;27.00;99.90;;;;;;5095288;28;20440;-65
2021/08/03 11:08:44;;;;;;;14.15;4.45;;;27.10;99.90;;;;;;5094700;28;20374;-65
2021/08/03 11:11:11;;;;;;;11.52;3.33;;;27.00;99.90;;;;;;5074561;28;20086;-65
2021/08/03 11:13:49;;;;;;;11.23;3.55;;;27.10;99.90;;;;;;5068791;28;20112;-65
2021/08/03 11:16:21;;;;;;;11.50;3.90;;;27.20;99.90;;;;;;5083912;28;20035;-64
2021/08/03 11:19:06;;;;;;;7.75;3.47;;;27.10;99.90;;;;;;5075852;28;20043;-66
2021/08/03 11:21:50;;;;;;;12.20;3.42;;;26.90;99.90;;;;;;5093520;28;20063;-64
2021/08/03 11:24:34;;;;;;;10.82;4.13;;;26.70;99.90;;;;;;5065937;28;20115;-65
2021/08/03 11:27:00;;;;;;;11.88;4.32;;;26.50;99.90;;;;;;5069509;28;20028;-65
2021/08/03 11:29:37;;;;;;;8.23;3.35;;;26.30;99.90;;;;;;5093492;28;20421;-65
2021/08/03 11:32:20;;;;;;;14.55;4.78;;;26.30;99.90;;;;;;5085226;28;20033;-65
2021/08/03 11:34:48;;;;;;;16.33;5.13;;;26.30;99.90;;;;;;5092517;28;20024;-71
2021/08/03 11:37:15;;;;;;;10.68;3.83;;;26.30;99.90;;;;;;5076573;28;20506;-70
2021/08/03 11:39:51;;;;;;;8.75;3.78;;;25.70;99.90;;;;;;5091974;28;20137;-72
2021/08/03 11:42:40;;;;;;;7.82;4.22;;;25.20;99.90;;;;;;5088550;28;20028;-71
2021/08/03 11:45:21;;;;;;;14.52;3.70;;;24.60;99.90;;;;;;5075501;28;20055;-71
2021/08/03 11:47:49;;;;;;;14.17;3.90;;;23.90;99.90;;;;;;5068753;28;20039;-73
2021/08/03 11:50:26;;;;;;;11.90;3.65;;;23.10;99.90;;;;;;5076632;28;20362;-71
2021/08/03 11:52:52;;;;;;;8.15;3.95;;;22.80;99.90;;;;;;5074396;28;20099;-72
2021/08/03 11:55:18;;;;;;;4.85;3.38;;;22.30;99.90;;;;;;5075379;28;20114;-71
2021/08/03 11:57:47;;;;;;;22.38;4.47;;;22.30;99.90;;;;;;5096745;28;20015;-72
2021/08/03 12:00:21;;;;;;;20.45;6.38;;;22.30;99.90;;;;;;5092338;28;20062;-71
2021/08/03 12:02:50;;;;;;;18.70;6.25;;;21.70;99.90;;;;;;5096068;28;20055;-72
2021/08/03 12:05:24;;;;;;;32.30;9.37;;;21.30;99.90;;;;;;5084529;28;20030;-72
2021/08/03 12:08:09;;;;;;;17.00;7.57;;;21.00;99.90;;;;;;5071499;28;20089;-72
2021/08/03 12:10:43;;;;;;;25.05;8.48;;;20.40;99.90;;;;;;5061895;28;20020;-73
2021/08/03 12:13:11;;;;;;;17.05;6.43;;;20.30;99.90;;;;;;5092919;28;20042;-72
2021/08/03 12:15:49;;;;;;;27.25;9.10;;;20.00;99.90;;;;;;5074003;28;20433;-71
2021/08/03 12:18:15;;;;;;;20.23;8.25;;;20.00;99.90;;;;;;5105965;28;20050;-71
2021/08/03 12:20:53;;;;;;;13.60;7.15;;;19.80;99.90;;;;;;5110868;28;20082;-72
2021/08/03 12:23:36;;;;;;;7.55;5.22;;;19.80;99.90;;;;;;5114344;28;20028;-74
2021/08/03 12:26:20;;;;;;;10.45;4.72;;;19.50;99.90;;;;;;5078115;28;20166;-75
2021/08/03 12:28:53;;;;;;;25.23;7.68;;;19.30;99.90;;;;;;5093492;28;20651;-76
2021/08/03 12:31:32;;;;;;;25.52;5.78;;;19.00;99.90;;;;;;5075503;28;20105;-74
2021/08/03 12:34:08;;;;;;;30.35;7.60;;;18.70;99.90;;;;;;5094067;28;20125;-74
2021/08/03 12:37:00;;;;;;;7.35;4.75;;;18.50;99.90;;;;;;5092748;28;20022;-77
2021/08/03 12:39:39;;;;;;;9.70;6.95;;;18.50;99.90;;;;;;5072342;28;20264;-73
2021/08/03 12:42:31;;;;;;;13.18;5.50;;;18.90;99.90;;;;;;5089840;28;20119;-70
2021/08/03 12:45:18;;;;;;;7.70;4.38;;;19.20;99.90;;;;;;5092030;28;20032;-73
2021/08/03 12:48:01;;;;;;;8.13;5.28;;;19.20;99.90;;;;;;5092312;28;20411;-72
2021/08/03 12:50:28;;;;;;;11.20;5.88;;;19.60;99.90;;;;;;5073781;28;20114;-73
2021/08/03 12:53:01;;;;;;;9.18;5.20;;;19.90;99.90;;;;;;5091938;28;20478;-71
2021/08/03 12:55:42;;;;;;;10.68;4.88;;;20.50;99.90;;;;;;5070697;28;20180;-73
2021/08/03 12:58:08;;;;;;;10.18;5.68;;;20.80;99.90;;;;;;5072303;28;20021;-72